sensor_id;sensor_type;location;lat;lon;timestamp;P1;durP1;ratioP1;P2;durP2;ratioP2
50779;SDS011;36748;37.428;-121.972;2023-04-25T00:00:30;8.60;;;2.55;;
50779;SDS011;36748;37.428;-121.972;2023-04-25T00:02:56;8.35;;;3.42;;
50779;SDS011;36748;37.428;-121.972;2023-04-25T00:05:25;7.20;;;2.42;;
50779;SDS011;36748;37.428;-121.972;2023-04-25T00:07:52;8.25;;;2.63;;
50779;SDS011;36748;37.428;-121.972;2023-04-25T00:10:19;9.73;;;2.97;;
50779;SDS011;36748;37.428;-121.972;2023-04-25T00:12:46;14.95;;;3.35;;
50779;SDS011;36748;37.428;-121.972;2023-04-25T00:15:13;7.07;;;2.80;;
50779;SDS011;36748;37.428;-121.972;2023-04-25T00:17:39;7.07;;;2.83;;
50779;SDS011;36748;37.428;-121.972;2023-04-25T00:20:06;7.63;;;2.67;;
50779;SDS011;36748;37.428;-121.972;2023-04-25T00:22:35;5.70;;;2.60;;
50779;SDS011;36748;37.428;-121.972;2023-04-25T00:25:05;9.55;;;3.22;;
50779;SDS011;36748;37.428;-121.972;2023-04-25T00:27:32;14.57;;;3.60;;
50779;SDS011;36748;37.428;-121.972;2023-04-25T00:29:58;10.07;;;2.80;;
50779;SDS011;36748;37.428;-121.972;2023-04-25T00:32:25;12.20;;;3.47;;
50779;SDS011;36748;37.428;-121.972;2023-04-25T00:34:51;12.40;;;3.33;;
50779;SDS011;36748;37.428;-121.972;2023-04-25T00:37:17;13.55;;;3.55;;
50779;SDS011;36748;37.428;-121.972;2023-04-25T00:39:45;8.38;;;3.58;;
50779;SDS011;36748;37.428;-121.972;2023-04-25T00:42:11;10.20;;;3.60;;
50779;SDS011;36748;37.428;-121.972;2023-04-25T00:44:37;8.77;;;3.17;;
50779;SDS011;36748;37.428;-121.972;2023-04-25T00:47:04;7.93;;;3.03;;
50779;SDS011;36748;37.428;-121.972;2023-04-25T00:49:30;9.13;;;3.00;;
50779;SDS011;36748;37.428;-121.972;2023-04-25T00:51:57;5.97;;;2.92;;
50779;SDS011;36748;37.428;-121.972;2023-04-25T00:54:23;12.23;;;3.10;;
50779;SDS011;36748;37.428;-121.972;2023-04-25T00:56:50;8.20;;;2.85;;
50779;SDS011;36748;37.428;-121.972;2023-04-25T00:59:18;13.98;;;3.22;;
50779;SDS011;36748;37.428;-121.972;2023-04-25T01:01:45;7.95;;;3.25;;
50779;SDS011;36748;37.428;-121.972;2023-04-25T01:04:12;11.98;;;5.30;;
50779;SDS011;36748;37.428;-121.972;2023-04-25T01:06:39;12.82;;;7.22;;
50779;SDS011;36748;37.428;-121.972;2023-04-25T01:09:06;13.40;;;7.13;;
50779;SDS011;36748;37.428;-121.972;2023-04-25T01:11:32;11.57;;;6.70;;
50779;SDS011;36748;37.428;-121.972;2023-04-25T01:13:59;14.50;;;6.90;;
50779;SDS011;36748;37.428;-121.972;2023-04-25T01:16:26;18.55;;;8.38;;
50779;SDS011;36748;37.428;-121.972;2023-04-25T01:18:52;18.25;;;8.30;;
50779;SDS011;36748;37.428;-121.972;2023-04-25T01:21:18;17.73;;;7.25;;
50779;SDS011;36748;37.428;-121.972;2023-04-25T01:23:45;17.98;;;7.90;;
50779;SDS011;36748;37.428;-121.972;2023-04-25T01:26:11;19.85;;;7.40;;
50779;SDS011;36748;37.428;-121.972;2023-04-25T01:28:38;19.90;;;6.85;;
50779;SDS011;36748;37.428;-121.972;2023-04-25T01:31:08;13.50;;;6.38;;
50779;SDS011;36748;37.428;-121.972;2023-04-25T01:33:34;12.73;;;6.70;;
50779;SDS011;36748;37.428;-121.972;2023-04-25T01:36:01;15.95;;;7.05;;
50779;SDS011;36748;37.428;-121.972;2023-04-25T01:38:27;13.40;;;6.50;;
50779;SDS011;36748;37.428;-121.972;2023-04-25T01:40:54;14.15;;;6.47;;
50779;SDS011;36748;37.428;-121.972;2023-04-25T01:43:20;28.05;;;7.15;;
50779;SDS011;36748;37.428;-121.972;2023-04-25T01:45:46;12.95;;;6.63;;
50779;SDS011;36748;37.428;-121.972;2023-04-25T01:48:14;14.70;;;6.53;;
50779;SDS011;36748;37.428;-121.972;2023-04-25T01:50:41;12.27;;;6.45;;
50779;SDS011;36748;37.428;-121.972;2023-04-25T01:53:08;14.38;;;6.40;;
50779;SDS011;36748;37.428;-121.972;2023-04-25T01:55:36;11.43;;;5.55;;
50779;SDS011;36748;37.428;-121.972;2023-04-25T01:58:02;11.35;;;5.40;;
50779;SDS011;36748;37.428;-121.972;2023-04-25T02:00:34;16.13;;;6.00;;
50779;SDS011;36748;37.428;-121.972;2023-04-25T02:03:04;14.40;;;5.55;;
50779;SDS011;36748;37.428;-121.972;2023-04-25T02:05:34;13.60;;;5.32;;
50779;SDS011;36748;37.428;-121.972;2023-04-25T02:08:02;12.82;;;5.18;;
50779;SDS011;36748;37.428;-121.972;2023-04-25T02:10:30;9.48;;;5.25;;
50779;SDS011;36748;37.428;-121.972;2023-04-25T02:12:57;10.95;;;5.07;;
50779;SDS011;36748;37.428;-121.972;2023-04-25T02:15:24;15.18;;;5.35;;
50779;SDS011;36748;37.428;-121.972;2023-04-25T02:17:50;14.18;;;5.03;;
50779;SDS011;36748;37.428;-121.972;2023-04-25T02:20:23;11.82;;;4.80;;
50779;SDS011;36748;37.428;-121.972;2023-04-25T02:22:50;10.27;;;4.60;;
50779;SDS011;36748;37.428;-121.972;2023-04-25T02:25:17;11.55;;;4.45;;
50779;SDS011;36748;37.428;-121.972;2023-04-25T02:30:29;12.45;;;4.72;;
50779;SDS011;36748;37.428;-121.972;2023-04-25T02:32:55;14.02;;;5.35;;
50779;SDS011;36748;37.428;-121.972;2023-04-25T02:35:21;20.48;;;4.90;;
50779;SDS011;36748;37.428;-121.972;2023-04-25T02:37:48;10.88;;;4.28;;
50779;SDS011;36748;37.428;-121.972;2023-04-25T02:40:14;17.90;;;4.85;;
50779;SDS011;36748;37.428;-121.972;2023-04-25T02:42:40;10.13;;;4.20;;
50779;SDS011;36748;37.428;-121.972;2023-04-25T02:45:06;10.63;;;3.85;;
50779;SDS011;36748;37.428;-121.972;2023-04-25T02:47:33;11.52;;;3.78;;
50779;SDS011;36748;37.428;-121.972;2023-04-25T02:50:00;9.57;;;3.95;;
50779;SDS011;36748;37.428;-121.972;2023-04-25T02:52:26;10.30;;;4.07;;
50779;SDS011;36748;37.428;-121.972;2023-04-25T02:54:52;8.10;;;3.92;;
50779;SDS011;36748;37.428;-121.972;2023-04-25T02:57:18;10.85;;;4.18;;
50779;SDS011;36748;37.428;-121.972;2023-04-25T02:59:45;10.82;;;3.55;;
50779;SDS011;36748;37.428;-121.972;2023-04-25T03:02:11;13.63;;;3.85;;
50779;SDS011;36748;37.428;-121.972;2023-04-25T03:04:37;10.23;;;3.83;;
50779;SDS011;36748;37.428;-121.972;2023-04-25T03:07:04;9.95;;;3.90;;
50779;SDS011;36748;37.428;-121.972;2023-04-25T03:09:30;10.45;;;3.80;;
50779;SDS011;36748;37.428;-121.972;2023-04-25T03:11:56;12.52;;;3.90;;
50779;SDS011;36748;37.428;-121.972;2023-04-25T03:14:22;13.60;;;3.90;;
50779;SDS011;36748;37.428;-121.972;2023-04-25T03:16:49;11.63;;;4.07;;
50779;SDS011;36748;37.428;-121.972;2023-04-25T03:19:15;12.20;;;3.45;;
50779;SDS011;36748;37.428;-121.972;2023-04-25T03:21:42;12.57;;;3.63;;
50779;SDS011;36748;37.428;-121.972;2023-04-25T03:24:08;10.68;;;3.63;;
50779;SDS011;36748;37.428;-121.972;2023-04-25T03:26:36;10.15;;;3.72;;
50779;SDS011;36748;37.428;-121.972;2023-04-25T03:29:02;12.13;;;3.50;;
50779;SDS011;36748;37.428;-121.972;2023-04-25T03:31:28;11.70;;;3.78;;
50779;SDS011;36748;37.428;-121.972;2023-04-25T03:33:55;6.85;;;3.00;;
50779;SDS011;36748;37.428;-121.972;2023-04-25T03:36:21;8.30;;;3.40;;
50779;SDS011;36748;37.428;-121.972;2023-04-25T03:38:48;11.98;;;3.72;;
50779;SDS011;36748;37.428;-121.972;2023-04-25T03:41:14;10.20;;;3.88;;
50779;SDS011;36748;37.428;-121.972;2023-04-25T03:43:40;7.85;;;3.13;;
50779;SDS011;36748;37.428;-121.972;2023-04-25T03:46:06;11.45;;;4.28;;
50779;SDS011;36748;37.428;-121.972;2023-04-25T03:48:33;8.55;;;3.40;;
50779;SDS011;36748;37.428;-121.972;2023-04-25T03:50:59;9.55;;;2.92;;
50779;SDS011;36748;37.428;-121.972;2023-04-25T03:53:25;12.65;;;3.58;;
50779;SDS011;36748;37.428;-121.972;2023-04-25T03:55:51;11.25;;;3.83;;
50779;SDS011;36748;37.428;-121.972;2023-04-25T03:58:18;8.43;;;3.40;;
50779;SDS011;36748;37.428;-121.972;2023-04-25T04:00:44;7.97;;;3.30;;
50779;SDS011;36748;37.428;-121.972;2023-04-25T04:03:10;9.32;;;3.35;;
50779;SDS011;36748;37.428;-121.972;2023-04-25T04:05:37;10.32;;;3.45;;
50779;SDS011;36748;37.428;-121.972;2023-04-25T04:08:06;12.73;;;3.72;;
50779;SDS011;36748;37.428;-121.972;2023-04-25T04:10:32;8.38;;;3.10;;
50779;SDS011;36748;37.428;-121.972;2023-04-25T04:12:58;10.27;;;3.00;;
50779;SDS011;36748;37.428;-121.972;2023-04-25T04:15:24;8.82;;;2.72;;
50779;SDS011;36748;37.428;-121.972;2023-04-25T04:17:51;7.50;;;3.33;;
50779;SDS011;36748;37.428;-121.972;2023-04-25T04:20:17;7.40;;;2.83;;
50779;SDS011;36748;37.428;-121.972;2023-04-25T04:22:43;7.45;;;3.28;;
50779;SDS011;36748;37.428;-121.972;2023-04-25T04:25:09;9.35;;;3.13;;
50779;SDS011;36748;37.428;-121.972;2023-04-25T04:27:37;6.45;;;2.60;;
50779;SDS011;36748;37.428;-121.972;2023-04-25T04:30:05;9.85;;;3.80;;
50779;SDS011;36748;37.428;-121.972;2023-04-25T04:32:32;7.43;;;2.92;;
50779;SDS011;36748;37.428;-121.972;2023-04-25T04:34:59;11.45;;;3.58;;
50779;SDS011;36748;37.428;-121.972;2023-04-25T04:37:25;7.88;;;3.33;;
50779;SDS011;36748;37.428;-121.972;2023-04-25T04:39:52;6.50;;;2.35;;
50779;SDS011;36748;37.428;-121.972;2023-04-25T04:42:18;8.32;;;2.60;;
50779;SDS011;36748;37.428;-121.972;2023-04-25T04:44:44;8.52;;;3.25;;
50779;SDS011;36748;37.428;-121.972;2023-04-25T04:47:10;10.38;;;3.13;;
50779;SDS011;36748;37.428;-121.972;2023-04-25T04:49:37;10.25;;;3.45;;
50779;SDS011;36748;37.428;-121.972;2023-04-25T04:52:04;6.10;;;2.50;;
50779;SDS011;36748;37.428;-121.972;2023-04-25T04:54:30;9.10;;;3.15;;
50779;SDS011;36748;37.428;-121.972;2023-04-25T04:56:56;7.28;;;2.70;;
50779;SDS011;36748;37.428;-121.972;2023-04-25T04:59:23;11.25;;;2.80;;
50779;SDS011;36748;37.428;-121.972;2023-04-25T05:01:50;7.68;;;3.35;;
50779;SDS011;36748;37.428;-121.972;2023-04-25T05:04:16;7.90;;;3.25;;
50779;SDS011;36748;37.428;-121.972;2023-04-25T05:06:42;6.53;;;2.70;;
50779;SDS011;36748;37.428;-121.972;2023-04-25T05:09:09;8.02;;;2.85;;
50779;SDS011;36748;37.428;-121.972;2023-04-25T05:11:36;8.15;;;2.75;;
50779;SDS011;36748;37.428;-121.972;2023-04-25T05:14:02;11.52;;;2.75;;
50779;SDS011;36748;37.428;-121.972;2023-04-25T05:16:28;8.50;;;2.90;;
50779;SDS011;36748;37.428;-121.972;2023-04-25T05:18:55;5.57;;;2.35;;
50779;SDS011;36748;37.428;-121.972;2023-04-25T05:21:21;11.38;;;2.92;;
50779;SDS011;36748;37.428;-121.972;2023-04-25T05:23:47;6.63;;;2.75;;
50779;SDS011;36748;37.428;-121.972;2023-04-25T05:26:13;6.75;;;2.55;;
50779;SDS011;36748;37.428;-121.972;2023-04-25T05:28:40;9.00;;;2.60;;
50779;SDS011;36748;37.428;-121.972;2023-04-25T05:31:07;6.53;;;2.90;;
50779;SDS011;36748;37.428;-121.972;2023-04-25T05:33:33;6.30;;;2.53;;
50779;SDS011;36748;37.428;-121.972;2023-04-25T05:35:59;8.93;;;2.50;;
50779;SDS011;36748;37.428;-121.972;2023-04-25T05:38:26;5.63;;;2.25;;
50779;SDS011;36748;37.428;-121.972;2023-04-25T05:40:52;6.47;;;2.88;;
50779;SDS011;36748;37.428;-121.972;2023-04-25T05:43:18;7.20;;;2.88;;
50779;SDS011;36748;37.428;-121.972;2023-04-25T05:45:44;5.97;;;2.53;;
50779;SDS011;36748;37.428;-121.972;2023-04-25T05:48:12;5.97;;;2.55;;
50779;SDS011;36748;37.428;-121.972;2023-04-25T05:50:38;7.65;;;2.47;;
50779;SDS011;36748;37.428;-121.972;2023-04-25T05:53:04;5.93;;;2.67;;
50779;SDS011;36748;37.428;-121.972;2023-04-25T05:55:31;5.50;;;2.50;;
50779;SDS011;36748;37.428;-121.972;2023-04-25T05:57:57;6.20;;;2.53;;
50779;SDS011;36748;37.428;-121.972;2023-04-25T06:00:23;6.72;;;2.42;;
50779;SDS011;36748;37.428;-121.972;2023-04-25T06:02:50;5.40;;;2.30;;
50779;SDS011;36748;37.428;-121.972;2023-04-25T06:05:16;5.90;;;2.55;;
50779;SDS011;36748;37.428;-121.972;2023-04-25T06:07:42;6.53;;;2.25;;
50779;SDS011;36748;37.428;-121.972;2023-04-25T06:10:09;7.95;;;2.60;;
50779;SDS011;36748;37.428;-121.972;2023-04-25T06:12:36;7.68;;;2.30;;
50779;SDS011;36748;37.428;-121.972;2023-04-25T06:15:04;6.15;;;2.42;;
50779;SDS011;36748;37.428;-121.972;2023-04-25T06:17:30;5.53;;;2.15;;
50779;SDS011;36748;37.428;-121.972;2023-04-25T06:19:57;7.32;;;2.30;;
50779;SDS011;36748;37.428;-121.972;2023-04-25T06:22:23;6.70;;;2.70;;
50779;SDS011;36748;37.428;-121.972;2023-04-25T06:24:49;5.75;;;2.42;;
50779;SDS011;36748;37.428;-121.972;2023-04-25T06:27:15;5.50;;;2.28;;
50779;SDS011;36748;37.428;-121.972;2023-04-25T06:29:42;5.22;;;2.35;;
50779;SDS011;36748;37.428;-121.972;2023-04-25T06:32:08;7.68;;;2.10;;
50779;SDS011;36748;37.428;-121.972;2023-04-25T06:34:34;5.32;;;2.35;;
50779;SDS011;36748;37.428;-121.972;2023-04-25T06:37:00;6.20;;;2.42;;
50779;SDS011;36748;37.428;-121.972;2023-04-25T06:39:27;5.43;;;2.20;;
50779;SDS011;36748;37.428;-121.972;2023-04-25T06:41:53;5.38;;;2.53;;
50779;SDS011;36748;37.428;-121.972;2023-04-25T06:44:19;3.70;;;2.08;;
50779;SDS011;36748;37.428;-121.972;2023-04-25T06:46:48;3.70;;;1.80;;
50779;SDS011;36748;37.428;-121.972;2023-04-25T06:49:14;4.03;;;2.15;;
50779;SDS011;36748;37.428;-121.972;2023-04-25T06:51:40;5.25;;;1.98;;
50779;SDS011;36748;37.428;-121.972;2023-04-25T06:54:07;6.30;;;2.10;;
50779;SDS011;36748;37.428;-121.972;2023-04-25T06:56:33;3.78;;;1.92;;
50779;SDS011;36748;37.428;-121.972;2023-04-25T06:58:59;5.15;;;2.40;;
50779;SDS011;36748;37.428;-121.972;2023-04-25T07:01:45;4.07;;;2.00;;
50779;SDS011;36748;37.428;-121.972;2023-04-25T07:04:12;4.70;;;2.13;;
50779;SDS011;36748;37.428;-121.972;2023-04-25T07:06:38;4.07;;;2.15;;
50779;SDS011;36748;37.428;-121.972;2023-04-25T07:09:08;4.90;;;2.28;;
50779;SDS011;36748;37.428;-121.972;2023-04-25T07:11:38;4.05;;;1.77;;
50779;SDS011;36748;37.428;-121.972;2023-04-25T07:14:04;5.22;;;1.83;;
50779;SDS011;36748;37.428;-121.972;2023-04-25T07:16:30;3.65;;;2.03;;
50779;SDS011;36748;37.428;-121.972;2023-04-25T07:18:56;4.95;;;1.80;;
50779;SDS011;36748;37.428;-121.972;2023-04-25T07:21:22;3.53;;;2.00;;
50779;SDS011;36748;37.428;-121.972;2023-04-25T07:23:49;4.82;;;2.45;;
50779;SDS011;36748;37.428;-121.972;2023-04-25T07:26:15;4.82;;;2.42;;
50779;SDS011;36748;37.428;-121.972;2023-04-25T07:28:41;6.68;;;2.47;;
50779;SDS011;36748;37.428;-121.972;2023-04-25T07:31:08;3.10;;;1.60;;
50779;SDS011;36748;37.428;-121.972;2023-04-25T07:33:34;4.88;;;2.08;;
50779;SDS011;36748;37.428;-121.972;2023-04-25T07:36:01;4.50;;;2.17;;
50779;SDS011;36748;37.428;-121.972;2023-04-25T07:38:27;5.78;;;2.35;;
50779;SDS011;36748;37.428;-121.972;2023-04-25T07:40:53;3.58;;;1.70;;
50779;SDS011;36748;37.428;-121.972;2023-04-25T07:43:20;4.60;;;2.10;;
50779;SDS011;36748;37.428;-121.972;2023-04-25T07:45:46;5.97;;;2.20;;
50779;SDS011;36748;37.428;-121.972;2023-04-25T07:48:18;5.28;;;2.17;;
50779;SDS011;36748;37.428;-121.972;2023-04-25T07:50:45;5.18;;;2.20;;
50779;SDS011;36748;37.428;-121.972;2023-04-25T07:53:11;3.45;;;2.10;;
50779;SDS011;36748;37.428;-121.972;2023-04-25T07:55:38;3.78;;;2.10;;
50779;SDS011;36748;37.428;-121.972;2023-04-25T07:58:08;4.25;;;2.03;;
50779;SDS011;36748;37.428;-121.972;2023-04-25T08:00:37;4.05;;;2.03;;
50779;SDS011;36748;37.428;-121.972;2023-04-25T08:03:04;3.10;;;2.00;;
50779;SDS011;36748;37.428;-121.972;2023-04-25T08:05:31;5.07;;;1.92;;
50779;SDS011;36748;37.428;-121.972;2023-04-25T08:07:57;3.10;;;1.50;;
50779;SDS011;36748;37.428;-121.972;2023-04-25T08:10:24;4.07;;;1.75;;
50779;SDS011;36748;37.428;-121.972;2023-04-25T08:12:50;5.45;;;2.08;;
50779;SDS011;36748;37.428;-121.972;2023-04-25T08:15:17;4.07;;;1.95;;
50779;SDS011;36748;37.428;-121.972;2023-04-25T08:17:43;3.90;;;1.80;;
50779;SDS011;36748;37.428;-121.972;2023-04-25T08:20:10;4.40;;;2.22;;
50779;SDS011;36748;37.428;-121.972;2023-04-25T08:22:36;4.10;;;2.00;;
50779;SDS011;36748;37.428;-121.972;2023-04-25T08:25:03;3.92;;;1.83;;
50779;SDS011;36748;37.428;-121.972;2023-04-25T08:27:29;4.38;;;1.95;;
50779;SDS011;36748;37.428;-121.972;2023-04-25T08:29:56;3.40;;;1.88;;
50779;SDS011;36748;37.428;-121.972;2023-04-25T08:32:23;4.60;;;2.20;;
50779;SDS011;36748;37.428;-121.972;2023-04-25T08:34:50;3.90;;;1.92;;
50779;SDS011;36748;37.428;-121.972;2023-04-25T08:37:19;6.32;;;2.10;;
50779;SDS011;36748;37.428;-121.972;2023-04-25T08:39:45;7.28;;;2.15;;
50779;SDS011;36748;37.428;-121.972;2023-04-25T08:42:13;3.67;;;2.00;;
50779;SDS011;36748;37.428;-121.972;2023-04-25T08:44:41;3.38;;;1.85;;
50779;SDS011;36748;37.428;-121.972;2023-04-25T08:47:07;4.03;;;1.77;;
50779;SDS011;36748;37.428;-121.972;2023-04-25T08:49:34;6.20;;;2.22;;
50779;SDS011;36748;37.428;-121.972;2023-04-25T08:52:02;6.43;;;1.75;;
50779;SDS011;36748;37.428;-121.972;2023-04-25T08:54:31;5.65;;;1.85;;
50779;SDS011;36748;37.428;-121.972;2023-04-25T08:56:59;3.80;;;2.00;;
50779;SDS011;36748;37.428;-121.972;2023-04-25T08:59:29;3.63;;;1.88;;
50779;SDS011;36748;37.428;-121.972;2023-04-25T09:01:57;3.05;;;1.52;;
50779;SDS011;36748;37.428;-121.972;2023-04-25T09:04:23;4.13;;;1.92;;
50779;SDS011;36748;37.428;-121.972;2023-04-25T09:06:50;3.25;;;1.70;;
50779;SDS011;36748;37.428;-121.972;2023-04-25T09:09:16;3.75;;;1.83;;
50779;SDS011;36748;37.428;-121.972;2023-04-25T09:11:42;2.55;;;1.67;;
50779;SDS011;36748;37.428;-121.972;2023-04-25T09:14:18;3.45;;;1.67;;
50779;SDS011;36748;37.428;-121.972;2023-04-25T09:19:25;4.07;;;2.20;;
50779;SDS011;36748;37.428;-121.972;2023-04-25T09:21:55;3.03;;;1.58;;
50779;SDS011;36748;37.428;-121.972;2023-04-25T09:27:06;3.60;;;1.73;;
50779;SDS011;36748;37.428;-121.972;2023-04-25T09:29:37;2.40;;;1.65;;
50779;SDS011;36748;37.428;-121.972;2023-04-25T09:32:18;3.60;;;2.00;;
50779;SDS011;36748;37.428;-121.972;2023-04-25T09:34:46;4.85;;;1.83;;
50779;SDS011;36748;37.428;-121.972;2023-04-25T09:37:21;3.03;;;1.50;;
50779;SDS011;36748;37.428;-121.972;2023-04-25T09:39:52;2.53;;;1.60;;
50779;SDS011;36748;37.428;-121.972;2023-04-25T09:42:23;3.65;;;1.90;;
50779;SDS011;36748;37.428;-121.972;2023-04-25T09:44:54;4.18;;;1.73;;
50779;SDS011;36748;37.428;-121.972;2023-04-25T09:47:22;3.25;;;1.67;;
50779;SDS011;36748;37.428;-121.972;2023-04-25T09:49:50;3.30;;;1.75;;
50779;SDS011;36748;37.428;-121.972;2023-04-25T09:52:18;3.83;;;1.75;;
50779;SDS011;36748;37.428;-121.972;2023-04-25T09:54:46;3.90;;;2.00;;
50779;SDS011;36748;37.428;-121.972;2023-04-25T09:57:16;4.25;;;1.63;;
50779;SDS011;36748;37.428;-121.972;2023-04-25T09:59:45;4.47;;;2.08;;
50779;SDS011;36748;37.428;-121.972;2023-04-25T10:02:19;3.13;;;1.85;;
50779;SDS011;36748;37.428;-121.972;2023-04-25T10:04:50;2.65;;;1.50;;
50779;SDS011;36748;37.428;-121.972;2023-04-25T10:07:20;3.45;;;1.70;;
50779;SDS011;36748;37.428;-121.972;2023-04-25T10:09:53;2.83;;;1.83;;
50779;SDS011;36748;37.428;-121.972;2023-04-25T10:12:30;2.67;;;1.27;;
50779;SDS011;36748;37.428;-121.972;2023-04-25T10:14:58;2.88;;;1.38;;
50779;SDS011;36748;37.428;-121.972;2023-04-25T10:17:28;3.42;;;1.63;;
50779;SDS011;36748;37.428;-121.972;2023-04-25T10:19:55;3.97;;;1.50;;
50779;SDS011;36748;37.428;-121.972;2023-04-25T10:25:13;3.20;;;1.73;;
50779;SDS011;36748;37.428;-121.972;2023-04-25T10:27:40;3.78;;;1.73;;
50779;SDS011;36748;37.428;-121.972;2023-04-25T10:30:10;3.03;;;1.63;;
50779;SDS011;36748;37.428;-121.972;2023-04-25T10:32:43;3.15;;;1.52;;
50779;SDS011;36748;37.428;-121.972;2023-04-25T10:40:32;2.40;;;1.40;;
50779;SDS011;36748;37.428;-121.972;2023-04-25T10:45:59;3.47;;;1.63;;
50779;SDS011;36748;37.428;-121.972;2023-04-25T10:48:29;3.60;;;1.65;;
50779;SDS011;36748;37.428;-121.972;2023-04-25T10:51:09;3.78;;;1.58;;
50779;SDS011;36748;37.428;-121.972;2023-04-25T10:53:36;2.47;;;1.48;;
50779;SDS011;36748;37.428;-121.972;2023-04-25T10:56:18;4.15;;;1.80;;
50779;SDS011;36748;37.428;-121.972;2023-04-25T10:58:47;2.88;;;1.35;;
50779;SDS011;36748;37.428;-121.972;2023-04-25T11:01:14;2.65;;;1.52;;
50779;SDS011;36748;37.428;-121.972;2023-04-25T11:03:41;3.42;;;1.23;;
50779;SDS011;36748;37.428;-121.972;2023-04-25T11:08:54;3.35;;;1.50;;
50779;SDS011;36748;37.428;-121.972;2023-04-25T11:11:21;2.25;;;1.40;;
50779;SDS011;36748;37.428;-121.972;2023-04-25T11:13:47;2.25;;;1.50;;
50779;SDS011;36748;37.428;-121.972;2023-04-25T11:16:15;3.65;;;1.25;;
50779;SDS011;36748;37.428;-121.972;2023-04-25T11:18:42;3.85;;;1.70;;
50779;SDS011;36748;37.428;-121.972;2023-04-25T11:21:10;4.53;;;1.65;;
50779;SDS011;36748;37.428;-121.972;2023-04-25T11:23:36;2.63;;;1.40;;
50779;SDS011;36748;37.428;-121.972;2023-04-25T11:26:03;2.47;;;1.40;;
50779;SDS011;36748;37.428;-121.972;2023-04-25T11:28:29;4.15;;;1.88;;
50779;SDS011;36748;37.428;-121.972;2023-04-25T11:30:56;3.88;;;1.20;;
50779;SDS011;36748;37.428;-121.972;2023-04-25T11:33:23;2.90;;;1.60;;
50779;SDS011;36748;37.428;-121.972;2023-04-25T11:35:50;4.88;;;1.80;;
50779;SDS011;36748;37.428;-121.972;2023-04-25T11:38:21;3.58;;;1.52;;
50779;SDS011;36748;37.428;-121.972;2023-04-25T11:40:51;2.38;;;1.15;;
50779;SDS011;36748;37.428;-121.972;2023-04-25T11:43:21;6.85;;;1.60;;
50779;SDS011;36748;37.428;-121.972;2023-04-25T11:45:48;2.33;;;1.20;;
50779;SDS011;36748;37.428;-121.972;2023-04-25T11:48:16;3.33;;;1.63;;
50779;SDS011;36748;37.428;-121.972;2023-04-25T11:50:43;1.55;;;1.30;;
50779;SDS011;36748;37.428;-121.972;2023-04-25T11:53:09;2.42;;;1.40;;
50779;SDS011;36748;37.428;-121.972;2023-04-25T11:55:36;3.50;;;1.45;;
50779;SDS011;36748;37.428;-121.972;2023-04-25T11:58:03;4.97;;;1.92;;
50779;SDS011;36748;37.428;-121.972;2023-04-25T12:00:30;3.97;;;1.38;;
50779;SDS011;36748;37.428;-121.972;2023-04-25T12:02:56;4.30;;;1.55;;
50779;SDS011;36748;37.428;-121.972;2023-04-25T12:05:24;3.28;;;1.80;;
50779;SDS011;36748;37.428;-121.972;2023-04-25T12:07:52;2.47;;;1.50;;
50779;SDS011;36748;37.428;-121.972;2023-04-25T12:10:18;14.98;;;1.70;;
50779;SDS011;36748;37.428;-121.972;2023-04-25T12:12:47;2.00;;;1.23;;
50779;SDS011;36748;37.428;-121.972;2023-04-25T12:15:15;3.15;;;1.60;;
50779;SDS011;36748;37.428;-121.972;2023-04-25T12:17:48;2.58;;;1.30;;
50779;SDS011;36748;37.428;-121.972;2023-04-25T12:20:16;3.83;;;1.52;;
50779;SDS011;36748;37.428;-121.972;2023-04-25T12:22:45;2.65;;;1.27;;
50779;SDS011;36748;37.428;-121.972;2023-04-25T12:25:12;2.85;;;1.63;;
50779;SDS011;36748;37.428;-121.972;2023-04-25T12:27:39;2.25;;;1.33;;
50779;SDS011;36748;37.428;-121.972;2023-04-25T12:30:09;3.05;;;1.65;;
50779;SDS011;36748;37.428;-121.972;2023-04-25T12:32:38;2.13;;;1.23;;
50779;SDS011;36748;37.428;-121.972;2023-04-25T12:35:05;2.22;;;1.25;;
50779;SDS011;36748;37.428;-121.972;2023-04-25T12:37:32;3.03;;;1.45;;
50779;SDS011;36748;37.428;-121.972;2023-04-25T12:39:58;2.92;;;1.45;;
50779;SDS011;36748;37.428;-121.972;2023-04-25T12:42:24;3.38;;;1.55;;
50779;SDS011;36748;37.428;-121.972;2023-04-25T12:44:50;5.55;;;1.30;;
50779;SDS011;36748;37.428;-121.972;2023-04-25T12:47:17;2.72;;;1.30;;
50779;SDS011;36748;37.428;-121.972;2023-04-25T12:49:43;2.13;;;1.20;;
50779;SDS011;36748;37.428;-121.972;2023-04-25T12:52:10;2.95;;;0.95;;
50779;SDS011;36748;37.428;-121.972;2023-04-25T12:54:36;1.30;;;1.00;;
50779;SDS011;36748;37.428;-121.972;2023-04-25T12:57:03;2.85;;;1.30;;
50779;SDS011;36748;37.428;-121.972;2023-04-25T12:59:30;1.58;;;1.13;;
50779;SDS011;36748;37.428;-121.972;2023-04-25T13:01:56;2.88;;;1.30;;
50779;SDS011;36748;37.428;-121.972;2023-04-25T13:04:22;1.30;;;0.90;;
50779;SDS011;36748;37.428;-121.972;2023-04-25T13:06:49;2.00;;;1.00;;
50779;SDS011;36748;37.428;-121.972;2023-04-25T13:09:15;2.67;;;1.17;;
50779;SDS011;36748;37.428;-121.972;2023-04-25T13:11:41;2.47;;;1.40;;
50779;SDS011;36748;37.428;-121.972;2023-04-25T13:14:08;2.60;;;1.25;;
50779;SDS011;36748;37.428;-121.972;2023-04-25T13:16:34;1.73;;;1.00;;
50779;SDS011;36748;37.428;-121.972;2023-04-25T13:19:00;1.38;;;1.02;;
50779;SDS011;36748;37.428;-121.972;2023-04-25T13:21:29;2.45;;;1.20;;
50779;SDS011;36748;37.428;-121.972;2023-04-25T13:23:57;2.28;;;1.17;;
50779;SDS011;36748;37.428;-121.972;2023-04-25T13:26:23;3.17;;;1.20;;
50779;SDS011;36748;37.428;-121.972;2023-04-25T13:28:50;2.15;;;1.17;;
50779;SDS011;36748;37.428;-121.972;2023-04-25T13:31:16;2.72;;;1.45;;
50779;SDS011;36748;37.428;-121.972;2023-04-25T13:33:43;2.85;;;1.20;;
50779;SDS011;36748;37.428;-121.972;2023-04-25T13:36:09;1.95;;;1.20;;
50779;SDS011;36748;37.428;-121.972;2023-04-25T13:38:36;2.47;;;1.30;;
50779;SDS011;36748;37.428;-121.972;2023-04-25T13:41:04;2.60;;;1.10;;
50779;SDS011;36748;37.428;-121.972;2023-04-25T13:43:32;2.47;;;1.30;;
50779;SDS011;36748;37.428;-121.972;2023-04-25T13:45:59;10.82;;;1.40;;
50779;SDS011;36748;37.428;-121.972;2023-04-25T13:48:25;6.25;;;1.50;;
50779;SDS011;36748;37.428;-121.972;2023-04-25T13:50:51;1.83;;;1.17;;
50779;SDS011;36748;37.428;-121.972;2023-04-25T13:53:18;3.92;;;1.40;;
50779;SDS011;36748;37.428;-121.972;2023-04-25T13:55:44;5.93;;;1.58;;
50779;SDS011;36748;37.428;-121.972;2023-04-25T13:58:10;2.70;;;1.40;;
50779;SDS011;36748;37.428;-121.972;2023-04-25T14:00:37;6.35;;;1.25;;
50779;SDS011;36748;37.428;-121.972;2023-04-25T14:03:05;2.78;;;1.27;;
50779;SDS011;36748;37.428;-121.972;2023-04-25T14:05:32;4.95;;;1.45;;
50779;SDS011;36748;37.428;-121.972;2023-04-25T14:08:04;3.55;;;1.20;;
50779;SDS011;36748;37.428;-121.972;2023-04-25T14:10:51;3.70;;;1.23;;
50779;SDS011;36748;37.428;-121.972;2023-04-25T14:13:17;2.55;;;1.30;;
50779;SDS011;36748;37.428;-121.972;2023-04-25T14:15:43;4.00;;;1.38;;
50779;SDS011;36748;37.428;-121.972;2023-04-25T14:18:09;2.78;;;1.40;;
50779;SDS011;36748;37.428;-121.972;2023-04-25T14:20:36;2.05;;;1.05;;
50779;SDS011;36748;37.428;-121.972;2023-04-25T14:23:02;2.15;;;1.20;;
50779;SDS011;36748;37.428;-121.972;2023-04-25T14:25:29;1.50;;;1.17;;
50779;SDS011;36748;37.428;-121.972;2023-04-25T14:27:55;1.75;;;1.20;;